sensor_id;sensor_type;location;lat;lon;timestamp;P1;durP1;ratioP1;P2;durP2;ratioP2
54983;SDS011;40884;53.562;9.940;2023-02-01T00:00:25;18.47;;;4.10;;
54983;SDS011;40884;53.562;9.940;2023-02-01T00:01:25;16.73;;;4.37;;
54983;SDS011;40884;53.562;9.940;2023-02-01T00:02:25;16.73;;;4.10;;
54983;SDS011;40884;53.562;9.940;2023-02-01T00:03:25;19.67;;;4.17;;
54983;SDS011;40884;53.562;9.940;2023-02-01T00:04:26;16.97;;;4.27;;
54983;SDS011;40884;53.562;9.940;2023-02-01T00:05:26;19.27;;;5.10;;
54983;SDS011;40884;53.562;9.940;2023-02-01T00:06:26;20.13;;;3.80;;
54983;SDS011;40884;53.562;9.940;2023-02-01T00:07:26;21.27;;;4.90;;
54983;SDS011;40884;53.562;9.940;2023-02-01T00:08:26;25.23;;;4.77;;
54983;SDS011;40884;53.562;9.940;2023-02-01T00:09:27;19.97;;;5.20;;
54983;SDS011;40884;53.562;9.940;2023-02-01T00:10:27;17.70;;;4.37;;
54983;SDS011;40884;53.562;9.940;2023-02-01T00:11:27;22.10;;;4.60;;
54983;SDS011;40884;53.562;9.940;2023-02-01T00:12:27;14.03;;;3.90;;
54983;SDS011;40884;53.562;9.940;2023-02-01T00:13:28;17.43;;;4.53;;
54983;SDS011;40884;53.562;9.940;2023-02-01T00:14:28;15.47;;;4.10;;
54983;SDS011;40884;53.562;9.940;2023-02-01T00:15:28;21.27;;;4.83;;
54983;SDS011;40884;53.562;9.940;2023-02-01T00:16:29;19.90;;;4.07;;
54983;SDS011;40884;53.562;9.940;2023-02-01T00:17:29;15.47;;;3.67;;
54983;SDS011;40884;53.562;9.940;2023-02-01T00:18:29;24.27;;;5.00;;
54983;SDS011;40884;53.562;9.940;2023-02-01T00:19:29;20.23;;;4.77;;
54983;SDS011;40884;53.562;9.940;2023-02-01T00:20:30;20.17;;;5.23;;
54983;SDS011;40884;53.562;9.940;2023-02-01T00:21:30;16.30;;;4.30;;
54983;SDS011;40884;53.562;9.940;2023-02-01T00:22:30;21.87;;;4.60;;
54983;SDS011;40884;53.562;9.940;2023-02-01T00:23:36;16.73;;;3.97;;
54983;SDS011;40884;53.562;9.940;2023-02-01T00:24:36;14.52;;;4.10;;
54983;SDS011;40884;53.562;9.940;2023-02-01T00:25:37;24.03;;;4.77;;
54983;SDS011;40884;53.562;9.940;2023-02-01T00:26:38;17.23;;;4.20;;
54983;SDS011;40884;53.562;9.940;2023-02-01T00:27:38;17.60;;;4.50;;
54983;SDS011;40884;53.562;9.940;2023-02-01T00:28:38;20.83;;;4.17;;
54983;SDS011;40884;53.562;9.940;2023-02-01T00:29:38;17.77;;;4.20;;
54983;SDS011;40884;53.562;9.940;2023-02-01T00:30:38;13.03;;;4.33;;
54983;SDS011;40884;53.562;9.940;2023-02-01T00:31:39;18.13;;;3.90;;
54983;SDS011;40884;53.562;9.940;2023-02-01T00:32:39;20.63;;;4.53;;
54983;SDS011;40884;53.562;9.940;2023-02-01T00:33:39;16.87;;;4.30;;
54983;SDS011;40884;53.562;9.940;2023-02-01T00:34:39;19.20;;;4.47;;
54983;SDS011;40884;53.562;9.940;2023-02-01T00:35:39;21.03;;;4.97;;
54983;SDS011;40884;53.562;9.940;2023-02-01T00:36:40;12.67;;;3.67;;
54983;SDS011;40884;53.562;9.940;2023-02-01T00:37:40;18.13;;;4.47;;
54983;SDS011;40884;53.562;9.940;2023-02-01T00:38:40;19.73;;;4.67;;
54983;SDS011;40884;53.562;9.940;2023-02-01T00:39:41;19.73;;;4.40;;
54983;SDS011;40884;53.562;9.940;2023-02-01T00:40:41;17.93;;;3.93;;
54983;SDS011;40884;53.562;9.940;2023-02-01T00:41:41;19.70;;;4.50;;
54983;SDS011;40884;53.562;9.940;2023-02-01T00:42:42;23.40;;;5.20;;
54983;SDS011;40884;53.562;9.940;2023-02-01T00:43:42;23.63;;;4.53;;
54983;SDS011;40884;53.562;9.940;2023-02-01T00:44:42;15.47;;;4.10;;
54983;SDS011;40884;53.562;9.940;2023-02-01T00:45:42;17.40;;;4.33;;
54983;SDS011;40884;53.562;9.940;2023-02-01T00:46:43;17.77;;;4.30;;
54983;SDS011;40884;53.562;9.940;2023-02-01T00:47:43;26.77;;;5.43;;
54983;SDS011;40884;53.562;9.940;2023-02-01T00:48:44;21.97;;;5.43;;
54983;SDS011;40884;53.562;9.940;2023-02-01T00:49:44;19.47;;;4.37;;
54983;SDS011;40884;53.562;9.940;2023-02-01T00:50:44;20.20;;;4.83;;
54983;SDS011;40884;53.562;9.940;2023-02-01T00:51:44;18.73;;;4.27;;
54983;SDS011;40884;53.562;9.940;2023-02-01T00:52:44;24.60;;;5.50;;
54983;SDS011;40884;53.562;9.940;2023-02-01T00:53:44;18.20;;;4.40;;
54983;SDS011;40884;53.562;9.940;2023-02-01T00:54:45;21.20;;;4.60;;
54983;SDS011;40884;53.562;9.940;2023-02-01T00:55:45;21.30;;;4.27;;
54983;SDS011;40884;53.562;9.940;2023-02-01T00:56:46;24.10;;;5.20;;
54983;SDS011;40884;53.562;9.940;2023-02-01T00:57:46;22.63;;;5.13;;
54983;SDS011;40884;53.562;9.940;2023-02-01T00:58:46;21.47;;;4.87;;
54983;SDS011;40884;53.562;9.940;2023-02-01T00:59:46;22.20;;;5.77;;
54983;SDS011;40884;53.562;9.940;2023-02-01T01:00:46;24.63;;;4.80;;
54983;SDS011;40884;53.562;9.940;2023-02-01T01:01:46;21.80;;;5.07;;
54983;SDS011;40884;53.562;9.940;2023-02-01T01:02:46;21.47;;;4.90;;
54983;SDS011;40884;53.562;9.940;2023-02-01T01:03:48;24.77;;;5.97;;
54983;SDS011;40884;53.562;9.940;2023-02-01T01:04:48;21.50;;;4.97;;
54983;SDS011;40884;53.562;9.940;2023-02-01T01:05:49;22.37;;;5.07;;
54983;SDS011;40884;53.562;9.940;2023-02-01T01:06:49;21.67;;;4.83;;
54983;SDS011;40884;53.562;9.940;2023-02-01T01:07:49;21.13;;;4.70;;
54983;SDS011;40884;53.562;9.940;2023-02-01T01:08:53;18.03;;;4.37;;
54983;SDS011;40884;53.562;9.940;2023-02-01T01:09:54;30.30;;;6.22;;
54983;SDS011;40884;53.562;9.940;2023-02-01T01:10:54;24.23;;;4.93;;
54983;SDS011;40884;53.562;9.940;2023-02-01T01:11:54;20.93;;;6.00;;
54983;SDS011;40884;53.562;9.940;2023-02-01T01:12:54;29.33;;;6.03;;
54983;SDS011;40884;53.562;9.940;2023-02-01T01:13:55;22.37;;;5.07;;
54983;SDS011;40884;53.562;9.940;2023-02-01T01:14:55;22.30;;;4.93;;
54983;SDS011;40884;53.562;9.940;2023-02-01T01:15:55;23.03;;;5.33;;
54983;SDS011;40884;53.562;9.940;2023-02-01T01:16:55;22.10;;;4.80;;
54983;SDS011;40884;53.562;9.940;2023-02-01T01:17:56;23.30;;;4.77;;
54983;SDS011;40884;53.562;9.940;2023-02-01T01:18:56;19.20;;;4.53;;
54983;SDS011;40884;53.562;9.940;2023-02-01T01:19:56;26.00;;;6.07;;
54983;SDS011;40884;53.562;9.940;2023-02-01T01:20:57;21.83;;;5.57;;
54983;SDS011;40884;53.562;9.940;2023-02-01T01:21:57;24.07;;;4.87;;
54983;SDS011;40884;53.562;9.940;2023-02-01T01:22:57;26.93;;;5.87;;
54983;SDS011;40884;53.562;9.940;2023-02-01T01:23:57;19.90;;;4.83;;
54983;SDS011;40884;53.562;9.940;2023-02-01T01:24:57;20.10;;;4.57;;
54983;SDS011;40884;53.562;9.940;2023-02-01T01:25:58;20.97;;;5.17;;
54983;SDS011;40884;53.562;9.940;2023-02-01T01:26:58;21.40;;;5.17;;
54983;SDS011;40884;53.562;9.940;2023-02-01T01:27:58;23.53;;;4.87;;
54983;SDS011;40884;53.562;9.940;2023-02-01T01:28:59;18.80;;;4.90;;
54983;SDS011;40884;53.562;9.940;2023-02-01T01:29:59;25.23;;;5.43;;
54983;SDS011;40884;53.562;9.940;2023-02-01T01:30:59;26.73;;;5.37;;
54983;SDS011;40884;53.562;9.940;2023-02-01T01:31:59;26.67;;;4.93;;
54983;SDS011;40884;53.562;9.940;2023-02-01T01:33:00;21.70;;;5.13;;
54983;SDS011;40884;53.562;9.940;2023-02-01T01:34:00;21.90;;;5.37;;
54983;SDS011;40884;53.562;9.940;2023-02-01T01:35:00;26.47;;;5.43;;
54983;SDS011;40884;53.562;9.940;2023-02-01T01:36:01;24.07;;;4.67;;
54983;SDS011;40884;53.562;9.940;2023-02-01T01:37:01;18.83;;;5.07;;
54983;SDS011;40884;53.562;9.940;2023-02-01T01:38:01;23.37;;;5.77;;
54983;SDS011;40884;53.562;9.940;2023-02-01T01:39:02;21.73;;;4.80;;
54983;SDS011;40884;53.562;9.940;2023-02-01T01:40:05;24.60;;;5.27;;
54983;SDS011;40884;53.562;9.940;2023-02-01T01:41:06;20.40;;;4.45;;
54983;SDS011;40884;53.562;9.940;2023-02-01T01:42:08;25.13;;;5.23;;
54983;SDS011;40884;53.562;9.940;2023-02-01T01:43:12;23.05;;;6.00;;
54983;SDS011;40884;53.562;9.940;2023-02-01T01:45:32;26.33;;;4.82;;
54983;SDS011;40884;53.562;9.940;2023-02-01T01:46:34;19.50;;;4.35;;
54983;SDS011;40884;53.562;9.940;2023-02-01T01:47:39;30.73;;;4.95;;
54983;SDS011;40884;53.562;9.940;2023-02-01T01:48:40;24.10;;;4.93;;
54983;SDS011;40884;53.562;9.940;2023-02-01T01:49:40;25.73;;;5.63;;
54983;SDS011;40884;53.562;9.940;2023-02-01T01:50:42;21.63;;;5.53;;
54983;SDS011;40884;53.562;9.940;2023-02-01T01:51:45;18.80;;;4.95;;
54983;SDS011;40884;53.562;9.940;2023-02-01T01:52:48;22.58;;;4.72;;
54983;SDS011;40884;53.562;9.940;2023-02-01T01:53:51;22.60;;;4.75;;
54983;SDS011;40884;53.562;9.940;2023-02-01T01:54:53;24.13;;;5.65;;
54983;SDS011;40884;53.562;9.940;2023-02-01T01:55:54;22.53;;;5.23;;
54983;SDS011;40884;53.562;9.940;2023-02-01T01:56:57;30.02;;;5.63;;
54983;SDS011;40884;53.562;9.940;2023-02-01T01:58:00;19.63;;;4.57;;
54983;SDS011;40884;53.562;9.940;2023-02-01T01:59:02;24.65;;;5.63;;
54983;SDS011;40884;53.562;9.940;2023-02-01T02:00:04;18.27;;;4.90;;
54983;SDS011;40884;53.562;9.940;2023-02-01T02:01:13;20.52;;;5.15;;
54983;SDS011;40884;53.562;9.940;2023-02-01T02:02:13;25.43;;;5.17;;
54983;SDS011;40884;53.562;9.940;2023-02-01T02:03:15;20.00;;;4.50;;
54983;SDS011;40884;53.562;9.940;2023-02-01T02:04:17;25.57;;;5.23;;
54983;SDS011;40884;53.562;9.940;2023-02-01T02:05:17;21.77;;;5.27;;
54983;SDS011;40884;53.562;9.940;2023-02-01T02:06:23;27.38;;;5.13;;
54983;SDS011;40884;53.562;9.940;2023-02-01T02:07:27;23.17;;;5.55;;
54983;SDS011;40884;53.562;9.940;2023-02-01T02:08:28;23.27;;;4.93;;
54983;SDS011;40884;53.562;9.940;2023-02-01T02:09:29;24.70;;;4.47;;
54983;SDS011;40884;53.562;9.940;2023-02-01T02:10:29;21.63;;;5.33;;
54983;SDS011;40884;53.562;9.940;2023-02-01T02:11:29;21.17;;;5.33;;
54983;SDS011;40884;53.562;9.940;2023-02-01T02:12:30;21.67;;;6.13;;
54983;SDS011;40884;53.562;9.940;2023-02-01T02:13:37;23.53;;;5.43;;
54983;SDS011;40884;53.562;9.940;2023-02-01T02:14:38;21.63;;;5.28;;
54983;SDS011;40884;53.562;9.940;2023-02-01T02:15:40;21.37;;;5.27;;
54983;SDS011;40884;53.562;9.940;2023-02-01T02:16:45;26.98;;;5.38;;
54983;SDS011;40884;53.562;9.940;2023-02-01T02:17:58;25.80;;;5.22;;
54983;SDS011;40884;53.562;9.940;2023-02-01T02:19:09;22.77;;;5.18;;
54983;SDS011;40884;53.562;9.940;2023-02-01T02:24:27;22.40;;;4.68;;
54983;SDS011;40884;53.562;9.940;2023-02-01T02:25:44;27.40;;;5.30;;
54983;SDS011;40884;53.562;9.940;2023-02-01T02:26:53;17.60;;;4.87;;
54983;SDS011;40884;53.562;9.940;2023-02-01T02:30:34;22.25;;;5.13;;
54983;SDS011;40884;53.562;9.940;2023-02-01T02:36:29;23.47;;;5.57;;
54983;SDS011;40884;53.562;9.940;2023-02-01T02:37:43;27.25;;;5.82;;
54983;SDS011;40884;53.562;9.940;2023-02-01T02:40:04;23.25;;;5.85;;
54983;SDS011;40884;53.562;9.940;2023-02-01T02:41:42;20.05;;;4.72;;
54983;SDS011;40884;53.562;9.940;2023-02-01T02:42:37;28.52;;;5.78;;
54983;SDS011;40884;53.562;9.940;2023-02-01T02:43:46;22.93;;;5.13;;
54983;SDS011;40884;53.562;9.940;2023-02-01T02:44:49;28.20;;;5.95;;
54983;SDS011;40884;53.562;9.940;2023-02-01T02:46:04;28.67;;;5.47;;
54983;SDS011;40884;53.562;9.940;2023-02-01T02:47:08;19.92;;;4.97;;
54983;SDS011;40884;53.562;9.940;2023-02-01T02:48:17;28.60;;;6.43;;
54983;SDS011;40884;53.562;9.940;2023-02-01T02:49:22;19.75;;;4.93;;
54983;SDS011;40884;53.562;9.940;2023-02-01T02:50:28;25.20;;;5.05;;
54983;SDS011;40884;53.562;9.940;2023-02-01T02:51:34;22.88;;;4.97;;
54983;SDS011;40884;53.562;9.940;2023-02-01T02:52:40;24.08;;;5.47;;
54983;SDS011;40884;53.562;9.940;2023-02-01T02:53:46;23.55;;;5.70;;
54983;SDS011;40884;53.562;9.940;2023-02-01T02:54:48;23.60;;;5.22;;
54983;SDS011;40884;53.562;9.940;2023-02-01T02:55:51;24.42;;;5.43;;
54983;SDS011;40884;53.562;9.940;2023-02-01T02:56:52;27.93;;;5.70;;
54983;SDS011;40884;53.562;9.940;2023-02-01T02:57:53;25.63;;;5.57;;
54983;SDS011;40884;53.562;9.940;2023-02-01T02:58:54;22.40;;;5.43;;
54983;SDS011;40884;53.562;9.940;2023-02-01T02:59:55;24.77;;;5.80;;
54983;SDS011;40884;53.562;9.940;2023-02-01T03:00:56;22.33;;;5.10;;
54983;SDS011;40884;53.562;9.940;2023-02-01T03:01:57;24.77;;;5.03;;
54983;SDS011;40884;53.562;9.940;2023-02-01T03:02:57;21.50;;;5.20;;
54983;SDS011;40884;53.562;9.940;2023-02-01T03:03:57;27.07;;;5.70;;
54983;SDS011;40884;53.562;9.940;2023-02-01T03:04:58;23.27;;;6.10;;
54983;SDS011;40884;53.562;9.940;2023-02-01T03:06:00;21.90;;;5.40;;
54983;SDS011;40884;53.562;9.940;2023-02-01T03:08:02;24.03;;;5.83;;
54983;SDS011;40884;53.562;9.940;2023-02-01T03:08:30;21.48;;;5.13;;
54983;SDS011;40884;53.562;9.940;2023-02-01T03:09:31;23.83;;;5.30;;
54983;SDS011;40884;53.562;9.940;2023-02-01T03:11:36;22.77;;;5.30;;
54983;SDS011;40884;53.562;9.940;2023-02-01T03:12:38;24.75;;;4.88;;
54983;SDS011;40884;53.562;9.940;2023-02-01T03:13:51;26.88;;;4.72;;
54983;SDS011;40884;53.562;9.940;2023-02-01T03:14:54;26.58;;;5.53;;
54983;SDS011;40884;53.562;9.940;2023-02-01T03:17:13;21.58;;;5.10;;
54983;SDS011;40884;53.562;9.940;2023-02-01T03:18:29;19.25;;;4.45;;
54983;SDS011;40884;53.562;9.940;2023-02-01T03:19:33;24.95;;;5.65;;
54983;SDS011;40884;53.562;9.940;2023-02-01T03:20:34;23.10;;;5.63;;
54983;SDS011;40884;53.562;9.940;2023-02-01T03:22:55;25.55;;;5.03;;
54983;SDS011;40884;53.562;9.940;2023-02-01T03:23:59;24.20;;;4.38;;
54983;SDS011;40884;53.562;9.940;2023-02-01T03:25:02;21.35;;;5.35;;
54983;SDS011;40884;53.562;9.940;2023-02-01T03:26:05;17.33;;;4.75;;
54983;SDS011;40884;53.562;9.940;2023-02-01T03:28:07;25.00;;;5.20;;
54983;SDS011;40884;53.562;9.940;2023-02-01T03:29:11;18.75;;;5.00;;
54983;SDS011;40884;53.562;9.940;2023-02-01T03:30:29;20.55;;;4.50;;
54983;SDS011;40884;53.562;9.940;2023-02-01T03:31:30;17.60;;;3.70;;
54983;SDS011;40884;53.562;9.940;2023-02-01T03:32:31;16.37;;;4.30;;
54983;SDS011;40884;53.562;9.940;2023-02-01T03:33:31;15.97;;;4.03;;
54983;SDS011;40884;53.562;9.940;2023-02-01T03:34:34;18.65;;;4.22;;
54983;SDS011;40884;53.562;9.940;2023-02-01T03:35:44;15.07;;;3.60;;
54983;SDS011;40884;53.562;9.940;2023-02-01T03:36:48;12.25;;;3.90;;
54983;SDS011;40884;53.562;9.940;2023-02-01T03:37:48;16.70;;;3.63;;
54983;SDS011;40884;53.562;9.940;2023-02-01T03:40:08;12.27;;;3.58;;
54983;SDS011;40884;53.562;9.940;2023-02-01T03:41:15;11.00;;;3.90;;
54983;SDS011;40884;53.562;9.940;2023-02-01T03:42:22;13.13;;;3.50;;
54983;SDS011;40884;53.562;9.940;2023-02-01T03:43:24;11.07;;;2.95;;
54983;SDS011;40884;53.562;9.940;2023-02-01T03:44:26;11.20;;;3.37;;
54983;SDS011;40884;53.562;9.940;2023-02-01T03:45:31;13.05;;;3.75;;
54983;SDS011;40884;53.562;9.940;2023-02-01T03:46:45;15.75;;;3.03;;
54983;SDS011;40884;53.562;9.940;2023-02-01T03:47:49;12.00;;;2.70;;
54983;SDS011;40884;53.562;9.940;2023-02-01T03:48:50;11.75;;;3.10;;
54983;SDS011;40884;53.562;9.940;2023-02-01T03:49:56;13.38;;;3.00;;
54983;SDS011;40884;53.562;9.940;2023-02-01T03:50:58;12.40;;;2.88;;
54983;SDS011;40884;53.562;9.940;2023-02-01T03:51:59;11.68;;;3.22;;
54983;SDS011;40884;53.562;9.940;2023-02-01T03:53:04;11.50;;;2.53;;
54983;SDS011;40884;53.562;9.940;2023-02-01T03:54:06;11.88;;;3.05;;
54983;SDS011;40884;53.562;9.940;2023-02-01T03:55:08;8.93;;;2.50;;
54983;SDS011;40884;53.562;9.940;2023-02-01T03:56:09;12.07;;;2.57;;
54983;SDS011;40884;53.562;9.940;2023-02-01T03:57:11;13.03;;;3.00;;
54983;SDS011;40884;53.562;9.940;2023-02-01T03:58:13;14.15;;;3.25;;
54983;SDS011;40884;53.562;9.940;2023-02-01T03:59:14;11.35;;;2.88;;
54983;SDS011;40884;53.562;9.940;2023-02-01T04:01:15;12.10;;;3.33;;
54983;SDS011;40884;53.562;9.940;2023-02-01T04:02:15;13.73;;;3.13;;
54983;SDS011;40884;53.562;9.940;2023-02-01T04:03:17;10.90;;;3.28;;
54983;SDS011;40884;53.562;9.940;2023-02-01T04:04:17;14.17;;;3.43;;
54983;SDS011;40884;53.562;9.940;2023-02-01T04:05:17;13.63;;;3.10;;
54983;SDS011;40884;53.562;9.940;2023-02-01T04:06:26;9.10;;;2.72;;
54983;SDS011;40884;53.562;9.940;2023-02-01T04:07:29;16.27;;;3.88;;
54983;SDS011;40884;53.562;9.940;2023-02-01T04:08:29;15.57;;;3.70;;
54983;SDS011;40884;53.562;9.940;2023-02-01T04:09:29;16.37;;;3.47;;
54983;SDS011;40884;53.562;9.940;2023-02-01T04:10:29;14.27;;;4.43;;
54983;SDS011;40884;53.562;9.940;2023-02-01T04:11:29;16.03;;;3.33;;
54983;SDS011;40884;53.562;9.940;2023-02-01T04:12:30;19.10;;;3.30;;
54983;SDS011;40884;53.562;9.940;2023-02-01T04:13:30;15.03;;;3.60;;
54983;SDS011;40884;53.562;9.940;2023-02-01T04:14:30;16.70;;;3.30;;
54983;SDS011;40884;53.562;9.940;2023-02-01T04:15:30;14.87;;;3.30;;
54983;SDS011;40884;53.562;9.940;2023-02-01T04:16:31;14.67;;;3.30;;
54983;SDS011;40884;53.562;9.940;2023-02-01T04:17:31;18.23;;;4.63;;
54983;SDS011;40884;53.562;9.940;2023-02-01T04:18:31;12.93;;;2.67;;
54983;SDS011;40884;53.562;9.940;2023-02-01T04:19:31;14.83;;;3.33;;
54983;SDS011;40884;53.562;9.940;2023-02-01T04:20:31;15.37;;;3.17;;
54983;SDS011;40884;53.562;9.940;2023-02-01T04:21:31;16.03;;;3.97;;
54983;SDS011;40884;53.562;9.940;2023-02-01T04:22:31;12.90;;;3.07;;
54983;SDS011;40884;53.562;9.940;2023-02-01T04:23:32;12.63;;;3.57;;
54983;SDS011;40884;53.562;9.940;2023-02-01T04:24:32;14.50;;;3.40;;
54983;SDS011;40884;53.562;9.940;2023-02-01T04:25:32;10.90;;;2.90;;
54983;SDS011;40884;53.562;9.940;2023-02-01T04:26:32;14.33;;;3.10;;
54983;SDS011;40884;53.562;9.940;2023-02-01T04:27:32;12.40;;;3.13;;
54983;SDS011;40884;53.562;9.940;2023-02-01T04:28:32;14.27;;;3.63;;
54983;SDS011;40884;53.562;9.940;2023-02-01T04:29:33;14.53;;;3.50;;
54983;SDS011;40884;53.562;9.940;2023-02-01T04:30:33;11.63;;;2.70;;
54983;SDS011;40884;53.562;9.940;2023-02-01T04:31:33;12.37;;;3.00;;
54983;SDS011;40884;53.562;9.940;2023-02-01T04:32:34;11.23;;;2.87;;
54983;SDS011;40884;53.562;9.940;2023-02-01T04:33:34;10.53;;;3.23;;
54983;SDS011;40884;53.562;9.940;2023-02-01T04:34:34;9.90;;;2.53;;
54983;SDS011;40884;53.562;9.940;2023-02-01T04:35:34;14.67;;;3.03;;
54983;SDS011;40884;53.562;9.940;2023-02-01T04:36:34;11.90;;;3.33;;
54983;SDS011;40884;53.562;9.940;2023-02-01T04:37:34;16.17;;;3.70;;
54983;SDS011;40884;53.562;9.940;2023-02-01T04:38:35;11.87;;;2.60;;
54983;SDS011;40884;53.562;9.940;2023-02-01T04:39:35;11.43;;;2.87;;
54983;SDS011;40884;53.562;9.940;2023-02-01T04:40:35;12.90;;;3.33;;
54983;SDS011;40884;53.562;9.940;2023-02-01T04:41:35;13.10;;;2.90;;
54983;SDS011;40884;53.562;9.940;2023-02-01T04:42:35;9.60;;;2.60;;
54983;SDS011;40884;53.562;9.940;2023-02-01T04:43:35;14.47;;;3.43;;
54983;SDS011;40884;53.562;9.940;2023-02-01T04:44:36;11.70;;;2.83;;
54983;SDS011;40884;53.562;9.940;2023-02-01T04:45:36;10.23;;;2.50;;
54983;SDS011;40884;53.562;9.940;2023-02-01T04:46:36;13.10;;;2.87;;
54983;SDS011;40884;53.562;9.940;2023-02-01T04:47:36;9.87;;;2.37;;
54983;SDS011;40884;53.562;9.940;2023-02-01T04:48:36;13.23;;;2.70;;
54983;SDS011;40884;53.562;9.940;2023-02-01T04:49:36;10.97;;;2.60;;
54983;SDS011;40884;53.562;9.940;2023-02-01T04:50:36;13.70;;;2.70;;
54983;SDS011;40884;53.562;9.940;2023-02-01T04:51:36;14.83;;;2.70;;
54983;SDS011;40884;53.562;9.940;2023-02-01T04:52:37;10.57;;;2.47;;
54983;SDS011;40884;53.562;9.940;2023-02-01T04:53:37;9.33;;;2.67;;
54983;SDS011;40884;53.562;9.940;2023-02-01T04:54:37;12.47;;;2.70;;
54983;SDS011;40884;53.562;9.940;2023-02-01T04:55:37;13.23;;;2.57;;
54983;SDS011;40884;53.562;9.940;2023-02-01T04:56:37;7.87;;;2.00;;
54983;SDS011;40884;53.562;9.940;2023-02-01T04:57:38;7.63;;;2.17;;
54983;SDS011;40884;53.562;9.940;2023-02-01T04:58:38;12.87;;;2.70;;
54983;SDS011;40884;53.562;9.940;2023-02-01T04:59:38;9.17;;;2.27;;
54983;SDS011;40884;53.562;9.940;2023-02-01T05:00:38;10.73;;;2.17;;
54983;SDS011;40884;53.562;9.940;2023-02-01T05:01:38;8.03;;;2.00;;
54983;SDS011;40884;53.562;9.940;2023-02-01T05:02:38;8.37;;;1.80;;
54983;SDS011;40884;53.562;9.940;2023-02-01T05:03:38;9.10;;;2.20;;
54983;SDS011;40884;53.562;9.940;2023-02-01T05:04:39;7.37;;;1.50;;
54983;SDS011;40884;53.562;9.940;2023-02-01T05:05:39;7.03;;;2.03;;
54983;SDS011;40884;53.562;9.940;2023-02-01T05:06:39;6.83;;;1.90;;
54983;SDS011;40884;53.562;9.940;2023-02-01T05:07:39;5.23;;;1.80;;
54983;SDS011;40884;53.562;9.940;2023-02-01T05:08:39;4.83;;;1.20;;
54983;SDS011;40884;53.562;9.940;2023-02-01T05:09:39;5.03;;;1.50;;
54983;SDS011;40884;53.562;9.940;2023-02-01T05:10:39;7.00;;;1.53;;
54983;SDS011;40884;53.562;9.940;2023-02-01T05:11:41;3.57;;;1.23;;
54983;SDS011;40884;53.562;9.940;2023-02-01T05:12:42;3.78;;;1.10;;
54983;SDS011;40884;53.562;9.940;2023-02-01T05:13:43;3.45;;;1.13;;
54983;SDS011;40884;53.562;9.940;2023-02-01T05:14:43;3.50;;;0.87;;
54983;SDS011;40884;53.562;9.940;2023-02-01T05:15:43;5.03;;;1.03;;
54983;SDS011;40884;53.562;9.940;2023-02-01T05:16:43;3.63;;;0.90;;
54983;SDS011;40884;53.562;9.940;2023-02-01T05:17:43;2.90;;;0.90;;
54983;SDS011;40884;53.562;9.940;2023-02-01T05:18:43;2.90;;;0.80;;
54983;SDS011;40884;53.562;9.940;2023-02-01T05:19:43;2.83;;;0.77;;
54983;SDS011;40884;53.562;9.940;2023-02-01T05:20:43;3.47;;;0.87;;
54983;SDS011;40884;53.562;9.940;2023-02-01T05:21:44;2.40;;;0.93;;
54983;SDS011;40884;53.562;9.940;2023-02-01T05:22:44;2.93;;;0.97;;
54983;SDS011;40884;53.562;9.940;2023-02-01T05:23:44;4.13;;;1.07;;
54983;SDS011;40884;53.562;9.940;2023-02-01T05:24:44;1.13;;;0.53;;
54983;SDS011;40884;53.562;9.940;2023-02-01T05:25:44;2.10;;;0.80;;
54983;SDS011;40884;53.562;9.940;2023-02-01T05:26:45;3.37;;;1.57;;
54983;SDS011;40884;53.562;9.940;2023-02-01T05:27:45;3.10;;;1.30;;
54983;SDS011;40884;53.562;9.940;2023-02-01T05:28:45;3.83;;;1.20;;
54983;SDS011;40884;53.562;9.940;2023-02-01T05:29:45;2.43;;;1.00;;
54983;SDS011;40884;53.562;9.940;2023-02-01T05:30:45;5.13;;;0.90;;
54983;SDS011;40884;53.562;9.940;2023-02-01T05:31:46;2.53;;;0.90;;
54983;SDS011;40884;53.562;9.940;2023-02-01T05:32:48;5.80;;;1.03;;
54983;SDS011;40884;53.562;9.940;2023-02-01T05:33:49;1.65;;;0.60;;
54983;SDS011;40884;53.562;9.940;2023-02-01T05:34:49;3.20;;;0.93;;
54983;SDS011;40884;53.562;9.940;2023-02-01T05:35:49;2.53;;;0.80;;
54983;SDS011;40884;53.562;9.940;2023-02-01T05:36:49;2.30;;;0.63;;
54983;SDS011;40884;53.562;9.940;2023-02-01T05:37:50;2.30;;;0.70;;
54983;SDS011;40884;53.562;9.940;2023-02-01T05:38:50;1.73;;;0.50;;
54983;SDS011;40884;53.562;9.940;2023-02-01T05:39:50;1.70;;;0.60;;
54983;SDS011;40884;53.562;9.940;2023-02-01T05:40:50;0.53;;;0.30;;
54983;SDS011;40884;53.562;9.940;2023-02-01T05:41:50;1.20;;;0.50;;
54983;SDS011;40884;53.562;9.940;2023-02-01T05:42:50;0.87;;;0.40;;
54983;SDS011;40884;53.562;9.940;2023-02-01T05:43:50;2.27;;;0.90;;
54983;SDS011;40884;53.562;9.940;2023-02-01T05:44:51;2.43;;;1.10;;
54983;SDS011;40884;53.562;9.940;2023-02-01T05:45:51;2.70;;;1.13;;
54983;SDS011;40884;53.562;9.940;2023-02-01T05:46:52;2.53;;;0.83;;
54983;SDS011;40884;53.562;9.940;2023-02-01T05:47:52;0.90;;;0.40;;
54983;SDS011;40884;53.562;9.940;2023-02-01T05:48:52;1.67;;;0.63;;
54983;SDS011;40884;53.562;9.940;2023-02-01T05:49:52;1.93;;;0.60;;
54983;SDS011;40884;53.562;9.940;2023-02-01T05:50:52;1.97;;;0.73;;
54983;SDS011;40884;53.562;9.940;2023-02-01T05:51:52;2.03;;;0.53;;
54983;SDS011;40884;53.562;9.940;2023-02-01T05:52:53;1.93;;;0.50;;
54983;SDS011;40884;53.562;9.940;2023-02-01T05:53:53;2.27;;;0.70;;
54983;SDS011;40884;53.562;9.940;2023-02-01T05:54:53;1.63;;;0.67;;
54983;SDS011;40884;53.562;9.940;2023-02-01T05:55:53;0.93;;;0.50;;
54983;SDS011;40884;53.562;9.940;2023-02-01T05:56:53;1.67;;;0.40;;
54983;SDS011;40884;53.562;9.940;2023-02-01T05:57:53;1.30;;;0.60;;
54983;SDS011;40884;53.562;9.940;2023-02-01T05:58:53;1.40;;;0.47;;
54983;SDS011;40884;53.562;9.940;2023-02-01T05:59:54;2.10;;;0.70;;
54983;SDS011;40884;53.562;9.940;2023-02-01T06:00:54;2.03;;;0.73;;
54983;SDS011;40884;53.562;9.940;2023-02-01T06:01:54;3.93;;;0.90;;
54983;SDS011;40884;53.562;9.940;2023-02-01T06:02:54;3.47;;;0.73;;
54983;SDS011;40884;53.562;9.940;2023-02-01T06:03:54;2.53;;;0.70;;
54983;SDS011;40884;53.562;9.940;2023-02-01T06:04:54;2.17;;;0.60;;
54983;SDS011;40884;53.562;9.940;2023-02-01T06:05:54;1.80;;;0.60;;
54983;SDS011;40884;53.562;9.940;2023-02-01T06:06:54;1.77;;;0.70;;
54983;SDS011;40884;53.562;9.940;2023-02-01T06:07:55;1.93;;;0.60;;
54983;SDS011;40884;53.562;9.940;2023-02-01T06:08:55;2.30;;;0.80;;
54983;SDS011;40884;53.562;9.940;2023-02-01T06:09:55;3.53;;;0.80;;
54983;SDS011;40884;53.562;9.940;2023-02-01T06:10:58;1.90;;;0.70;;
54983;SDS011;40884;53.562;9.940;2023-02-01T06:11:59;2.80;;;0.77;;
54983;SDS011;40884;53.562;9.940;2023-02-01T06:12:59;2.83;;;0.80;;
54983;SDS011;40884;53.562;9.940;2023-02-01T06:13:59;1.73;;;0.50;;
54983;SDS011;40884;53.562;9.940;2023-02-01T06:14:59;1.70;;;0.70;;
54983;SDS011;40884;53.562;9.940;2023-02-01T06:16:00;3.00;;;1.10;;
54983;SDS011;40884;53.562;9.940;2023-02-01T06:17:00;4.73;;;1.10;;
54983;SDS011;40884;53.562;9.940;2023-02-01T06:18:00;1.77;;;0.70;;
54983;SDS011;40884;53.562;9.940;2023-02-01T06:19:01;2.03;;;0.70;;
54983;SDS011;40884;53.562;9.940;2023-02-01T06:20:01;2.63;;;1.20;;
54983;SDS011;40884;53.562;9.940;2023-02-01T06:21:01;2.47;;;0.83;;
54983;SDS011;40884;53.562;9.940;2023-02-01T06:22:01;2.77;;;0.90;;
54983;SDS011;40884;53.562;9.940;2023-02-01T06:23:01;4.97;;;1.03;;
54983;SDS011;40884;53.562;9.940;2023-02-01T06:24:02;3.60;;;0.87;;
54983;SDS011;40884;53.562;9.940;2023-02-01T06:25:03;3.53;;;1.20;;
54983;SDS011;40884;53.562;9.940;2023-02-01T06:26:04;4.00;;;1.47;;
54983;SDS011;40884;53.562;9.940;2023-02-01T06:27:04;6.22;;;1.73;;
54983;SDS011;40884;53.562;9.940;2023-02-01T06:28:05;3.20;;;1.30;;